createdAt,value
2024-01-04T00:00:32.020Z,0.70
2024-01-04T00:02:54.075Z,1.10
2024-01-04T00:05:16.026Z,1.80
2024-01-04T00:07:38.946Z,0.70
2024-01-04T00:10:00.977Z,1.10
2024-01-04T00:12:22.998Z,1.40
2024-01-04T00:14:45.449Z,0.75
2024-01-04T00:17:07.786Z,1.05
2024-01-04T00:19:29.811Z,1.60
2024-01-04T00:21:51.750Z,4.32
2024-01-04T00:24:13.829Z,2.03
2024-01-04T00:26:35.877Z,0.77
2024-01-04T00:28:58.589Z,3.00
2024-01-04T00:31:20.466Z,1.90
2024-01-04T00:33:42.626Z,1.40
2024-01-04T00:36:05.141Z,2.00
2024-01-04T00:38:27.054Z,0.57
2024-01-04T00:40:49.020Z,1.10
2024-01-04T00:43:11.104Z,0.70
2024-01-04T00:45:33.561Z,1.50
2024-01-04T00:47:55.610Z,0.70
2024-01-04T00:50:17.641Z,0.60
2024-01-04T00:52:39.591Z,0.90
2024-01-04T00:55:01.512Z,1.10
2024-01-04T00:57:23.374Z,0.60
2024-01-04T00:59:45.391Z,0.50
2024-01-04T01:02:07.395Z,1.20
2024-01-04T01:04:29.363Z,1.50
2024-01-04T01:06:51.376Z,1.80
2024-01-04T01:09:13.471Z,1.00
2024-01-04T01:11:35.442Z,1.10
2024-01-04T01:13:57.445Z,0.65
2024-01-04T01:16:19.352Z,0.95
2024-01-04T01:18:41.765Z,0.50
2024-01-04T01:21:03.915Z,0.40
2024-01-04T01:23:25.796Z,0.70
2024-01-04T01:25:47.730Z,0.50
2024-01-04T01:28:09.619Z,2.80
2024-01-04T01:30:31.652Z,0.50
2024-01-04T01:32:53.740Z,1.80
2024-01-04T01:35:15.824Z,0.50
2024-01-04T01:37:38.240Z,1.10
2024-01-04T01:40:00.202Z,1.00
2024-01-04T01:42:22.458Z,1.93
2024-01-04T01:44:44.453Z,2.35
2024-01-04T01:47:06.737Z,1.20
2024-01-04T01:49:28.882Z,0.60
2024-01-04T01:51:51.199Z,1.50
2024-01-04T01:54:13.782Z,1.00
2024-01-04T01:56:35.991Z,0.70
2024-01-04T01:59:04.428Z,1.67
2024-01-04T02:01:26.672Z,1.20
2024-01-04T02:03:49.295Z,0.80
2024-01-04T02:06:11.465Z,1.38
2024-01-04T02:08:33.459Z,2.70
2024-01-04T02:10:55.454Z,1.80
2024-01-04T02:13:17.444Z,2.70
2024-01-04T02:15:39.460Z,1.67
2024-01-04T02:18:01.890Z,1.20
2024-01-04T02:20:24.158Z,0.60
2024-01-04T02:22:46.439Z,1.13
2024-01-04T02:25:08.911Z,2.22
2024-01-04T02:27:30.758Z,0.70
2024-01-04T02:29:52.842Z,0.80
2024-01-04T02:32:14.861Z,0.85
2024-01-04T02:34:36.822Z,1.10
2024-01-04T02:36:58.752Z,1.15
2024-01-04T02:39:20.780Z,0.93
2024-01-04T02:41:42.752Z,1.20
2024-01-04T02:44:04.620Z,0.40
2024-01-04T02:46:26.517Z,0.50
2024-01-04T02:48:48.493Z,0.90
2024-01-04T02:51:10.558Z,0.40
2024-01-04T02:53:32.513Z,0.50
2024-01-04T02:55:56.356Z,1.60
2024-01-04T02:58:19.231Z,1.05
2024-01-04T03:00:41.190Z,1.10
2024-01-04T03:03:03.397Z,0.57
2024-01-04T03:05:25.373Z,0.50
2024-01-04T03:07:47.297Z,0.50
2024-01-04T03:10:09.536Z,0.88
2024-01-04T03:12:31.465Z,0.30
2024-01-04T03:14:54.200Z,0.50
2024-01-04T03:17:16.110Z,0.40
2024-01-04T03:19:38.044Z,0.60
2024-01-04T03:22:00.020Z,0.30
2024-01-04T03:24:21.885Z,0.40
2024-01-04T03:26:43.884Z,0.80
2024-01-04T03:29:05.769Z,2.20
2024-01-04T03:31:27.707Z,1.25
2024-01-04T03:33:50.652Z,0.80
2024-01-04T03:36:15.536Z,1.60
2024-01-04T03:38:37.655Z,0.60
2024-01-04T03:41:03.496Z,1.90
2024-01-04T03:43:25.450Z,0.50
2024-01-04T03:45:47.405Z,1.03
2024-01-04T03:48:09.532Z,0.50
2024-01-04T03:50:31.562Z,0.80
2024-01-04T03:52:54.902Z,0.50
2024-01-04T03:55:17.164Z,0.40
2024-01-04T03:57:39.306Z,2.00
2024-01-04T04:00:02.940Z,0.50
2024-01-04T04:02:24.923Z,2.50
2024-01-04T04:04:46.863Z,0.40
2024-01-04T04:07:08.861Z,0.40
2024-01-04T04:09:30.811Z,1.20
2024-01-04T04:11:52.815Z,0.40
2024-01-04T04:14:14.760Z,0.60
2024-01-04T04:16:41.781Z,0.50
2024-01-04T04:19:04.687Z,1.00
2024-01-04T04:21:26.735Z,0.93
2024-01-04T04:23:51.302Z,0.83
2024-01-04T04:26:13.390Z,0.80
2024-01-04T04:28:35.218Z,0.30
2024-01-04T04:30:57.231Z,0.57
2024-01-04T04:33:19.282Z,0.80
2024-01-04T04:35:51.090Z,0.60
2024-01-04T04:38:17.583Z,1.13
2024-01-04T04:40:39.504Z,0.50
2024-01-04T04:43:01.329Z,0.90
2024-01-04T04:45:23.341Z,0.60
2024-01-04T04:47:45.564Z,0.50
2024-01-04T04:50:08.219Z,1.40
2024-01-04T04:52:30.978Z,0.50
2024-01-04T04:54:52.872Z,1.20
2024-01-04T04:57:14.873Z,0.98
2024-01-04T04:59:36.785Z,0.40
2024-01-04T05:01:58.672Z,0.50
2024-01-04T05:04:20.754Z,0.50
2024-01-04T05:06:42.894Z,1.00
2024-01-04T05:09:04.886Z,0.90
2024-01-04T05:11:26.763Z,0.90
2024-01-04T05:13:48.653Z,0.52
2024-01-04T05:16:11.163Z,0.60
2024-01-04T05:18:33.178Z,0.50
2024-01-04T05:20:55.154Z,0.50
2024-01-04T05:23:18.891Z,0.50
2024-01-04T05:25:42.014Z,0.47
2024-01-04T05:28:04.404Z,1.90
2024-01-04T05:30:26.480Z,0.40
2024-01-04T05:32:48.681Z,0.52
2024-01-04T05:35:13.003Z,0.50
2024-01-04T05:37:35.005Z,1.27
2024-01-04T05:39:59.624Z,1.20
2024-01-04T05:42:22.887Z,0.40
2024-01-04T05:44:44.912Z,0.50
2024-01-04T05:47:08.260Z,0.55
2024-01-04T05:49:30.213Z,0.90
2024-01-04T05:51:52.194Z,0.57
2024-01-04T05:54:14.152Z,0.60
2024-01-04T05:56:36.114Z,1.00
2024-01-04T05:58:58.092Z,0.80
2024-01-04T06:01:20.069Z,1.80
2024-01-04T06:03:42.126Z,0.40
2024-01-04T06:06:04.625Z,1.10
2024-01-04T06:08:26.593Z,0.60
2024-01-04T06:10:48.641Z,0.60
2024-01-04T06:13:10.710Z,1.30
2024-01-04T06:15:32.699Z,0.80
2024-01-04T06:17:54.828Z,0.60
2024-01-04T06:20:17.207Z,0.90
2024-01-04T06:22:40.609Z,0.50
2024-01-04T06:25:02.563Z,0.70
2024-01-04T06:27:24.623Z,0.50
2024-01-04T06:29:46.768Z,0.80
2024-01-04T06:32:09.354Z,0.80
2024-01-04T06:34:31.510Z,0.80
2024-01-04T06:36:53.491Z,0.50
2024-01-04T06:39:15.856Z,0.40
2024-01-04T06:41:39.488Z,0.50
2024-01-04T06:44:01.636Z,0.50
2024-01-04T06:46:23.614Z,0.70
2024-01-04T06:48:45.741Z,0.50
2024-01-04T06:51:07.961Z,0.73
2024-01-04T06:53:29.875Z,0.70
2024-01-04T06:55:51.771Z,0.52
2024-01-04T06:58:13.693Z,0.60
2024-01-04T07:00:35.763Z,0.60
2024-01-04T07:02:57.748Z,0.70
2024-01-04T07:05:19.671Z,1.30
2024-01-04T07:07:41.690Z,0.50
2024-01-04T07:10:04.457Z,0.90
2024-01-04T07:12:27.127Z,0.60
2024-01-04T07:14:49.066Z,0.57
2024-01-04T07:17:11.003Z,1.40
2024-01-04T07:19:32.999Z,0.52
2024-01-04T07:21:55.080Z,1.40
2024-01-04T07:24:17.464Z,1.75
2024-01-04T07:26:39.552Z,0.65
2024-01-04T07:29:01.935Z,0.50
2024-01-04T07:31:23.975Z,0.50
2024-01-04T07:33:46.096Z,1.27
2024-01-04T07:36:11.155Z,0.60
2024-01-04T07:38:35.588Z,0.50
2024-01-04T07:40:57.551Z,0.70
2024-01-04T07:43:19.940Z,0.52
2024-01-04T07:45:41.939Z,0.40
2024-01-04T07:48:04.487Z,1.30
2024-01-04T07:50:26.567Z,0.80
2024-01-04T07:52:48.551Z,0.80
2024-01-04T07:55:10.494Z,1.90
2024-01-04T07:57:32.512Z,0.90
2024-01-04T07:59:54.493Z,1.73
2024-01-04T08:02:17.418Z,1.00
2024-01-04T08:04:39.356Z,1.83
2024-01-04T08:07:01.408Z,0.50
2024-01-04T08:09:23.519Z,1.15
2024-01-04T08:11:45.643Z,1.40
2024-01-04T08:14:08.385Z,1.10
2024-01-04T08:16:30.819Z,2.40
2024-01-04T08:18:52.912Z,2.30
2024-01-04T08:21:15.146Z,1.92
2024-01-04T08:23:38.153Z,1.13
2024-01-04T08:26:00.268Z,1.20
2024-01-04T08:28:22.160Z,1.42
2024-01-04T08:30:44.241Z,1.70
2024-01-04T08:33:06.420Z,1.00
2024-01-04T08:35:28.610Z,1.98
2024-01-04T08:37:51.083Z,1.20
2024-01-04T08:40:14.429Z,2.75
2024-01-04T08:42:39.282Z,1.90
2024-01-04T08:45:01.356Z,1.90
2024-01-04T08:47:24.632Z,1.00
2024-01-04T08:49:46.691Z,1.30
2024-01-04T08:52:11.596Z,1.35
2024-01-04T08:54:33.438Z,1.20
2024-01-04T08:56:55.530Z,5.05
2024-01-04T08:59:17.664Z,1.30
2024-01-04T09:01:39.577Z,1.40
2024-01-04T09:04:03.007Z,1.80
2024-01-04T09:06:25.074Z,2.65
2024-01-04T09:08:47.032Z,2.50
2024-01-04T09:11:09.060Z,3.58
2024-01-04T09:13:31.272Z,2.60
2024-01-04T09:15:53.230Z,2.53
2024-01-04T09:18:15.258Z,2.20
2024-01-04T09:20:37.323Z,1.30
2024-01-04T09:22:59.386Z,2.50
2024-01-04T09:25:21.310Z,3.45
2024-01-04T09:27:43.245Z,2.92
2024-01-04T09:30:05.918Z,3.20
2024-01-04T09:32:27.850Z,3.38
2024-01-04T09:34:51.210Z,1.42
2024-01-04T09:37:13.386Z,2.92
2024-01-04T09:39:35.382Z,3.22
2024-01-04T09:41:58.252Z,3.75
2024-01-04T09:44:20.453Z,4.60
2024-01-04T09:46:43.641Z,2.00
2024-01-04T09:49:08.241Z,4.55
2024-01-04T09:51:40.489Z,3.10
2024-01-04T09:54:03.304Z,3.63
2024-01-04T09:56:27.704Z,2.80
2024-01-04T09:58:50.689Z,3.47
2024-01-04T10:01:15.569Z,3.13
2024-01-04T10:03:44.307Z,2.10
2024-01-04T10:06:10.367Z,6.15
2024-01-04T10:08:38.698Z,1.90
2024-01-04T10:11:12.097Z,2.67
2024-01-04T10:13:35.082Z,2.22
2024-01-04T10:15:57.036Z,2.67
2024-01-04T10:18:20.510Z,4.73
2024-01-04T10:20:42.688Z,2.90
2024-01-04T10:23:05.369Z,2.22
2024-01-04T10:25:27.273Z,3.77
2024-01-04T10:27:59.667Z,2.42
2024-01-04T10:30:21.853Z,3.20
2024-01-04T10:32:51.324Z,4.53
2024-01-04T10:35:13.404Z,1.75
2024-01-04T10:37:35.698Z,4.10
2024-01-04T10:39:59.261Z,1.83
2024-01-04T10:42:21.177Z,1.83
2024-01-04T10:44:47.033Z,2.35
2024-01-04T10:47:14.424Z,1.10
2024-01-04T10:49:42.650Z,2.03
2024-01-04T10:52:10.261Z,2.90
2024-01-04T10:54:35.756Z,2.40
2024-01-04T10:57:00.933Z,3.00
2024-01-04T10:59:23.482Z,1.87
2024-01-04T11:01:46.298Z,2.80
2024-01-04T11:04:10.169Z,1.15
2024-01-04T11:06:40.928Z,0.68
2024-01-04T11:09:02.864Z,2.67
2024-01-04T11:11:28.603Z,2.00
2024-01-04T11:13:50.516Z,1.90
2024-01-04T11:16:46.940Z,4.10
2024-01-04T11:20:02.178Z,2.83
2024-01-04T11:22:32.964Z,1.30
2024-01-04T11:25:25.933Z,2.95
2024-01-04T11:27:48.522Z,3.90
2024-01-04T11:30:11.716Z,1.58
2024-01-04T11:32:36.125Z,1.45
2024-01-04T11:34:58.684Z,4.72
2024-01-04T11:37:24.366Z,2.20
2024-01-04T11:39:58.030Z,1.73
2024-01-04T11:42:20.973Z,1.75
2024-01-04T11:44:49.651Z,2.65
2024-01-04T11:47:15.592Z,2.20
2024-01-04T11:49:53.881Z,2.50
2024-01-04T11:52:21.414Z,2.83
2024-01-04T11:54:43.410Z,1.40
2024-01-04T11:57:23.104Z,3.90
2024-01-04T11:59:45.213Z,1.50
2024-01-04T12:02:08.532Z,2.30
2024-01-04T12:04:33.034Z,2.13
2024-01-04T12:06:57.744Z,4.10
2024-01-04T12:09:20.530Z,2.20
2024-01-04T12:11:44.468Z,2.22
2024-01-04T12:14:08.128Z,2.15
2024-01-04T12:16:31.181Z,1.27
2024-01-04T12:18:53.347Z,2.35
2024-01-04T12:21:18.685Z,1.50
2024-01-04T12:23:41.514Z,1.20
2024-01-04T12:26:04.450Z,3.13
2024-01-04T12:28:28.534Z,2.20
2024-01-04T12:30:50.561Z,0.90
2024-01-04T12:33:12.653Z,2.88
2024-01-04T12:35:34.574Z,2.90
2024-01-04T12:38:05.420Z,3.15
2024-01-04T12:40:28.662Z,2.75
2024-01-04T12:42:50.614Z,2.80
2024-01-04T12:45:12.585Z,2.40
2024-01-04T12:47:35.322Z,2.85
2024-01-04T12:49:58.419Z,3.40
2024-01-04T12:52:20.493Z,3.53
2024-01-04T12:54:42.417Z,3.10
2024-01-04T12:57:04.663Z,2.80
2024-01-04T12:59:26.777Z,1.63
2024-01-04T13:01:48.968Z,2.42
2024-01-04T13:04:12.367Z,2.83
2024-01-04T13:06:34.608Z,5.45
2024-01-04T13:08:58.015Z,2.72
2024-01-04T13:11:20.456Z,2.90
2024-01-04T13:13:43.813Z,2.97
2024-01-04T13:16:07.115Z,2.40
2024-01-04T13:18:29.195Z,5.25
2024-01-04T13:20:51.530Z,6.55
2024-01-04T13:23:13.782Z,2.97
2024-01-04T13:25:35.942Z,4.82
2024-01-04T13:27:57.905Z,3.08
2024-01-04T13:30:21.465Z,2.30
2024-01-04T13:32:44.502Z,3.97
2024-01-04T13:35:06.794Z,5.43
2024-01-04T13:37:28.693Z,2.60
2024-01-04T13:39:50.551Z,2.63
2024-01-04T13:42:12.531Z,3.10
2024-01-04T13:44:35.443Z,3.38
2024-01-04T13:46:57.376Z,1.77
2024-01-04T13:49:19.949Z,2.40
2024-01-04T13:51:44.862Z,1.88
2024-01-04T13:54:09.922Z,2.03
2024-01-04T13:56:32.648Z,2.88
2024-01-04T13:58:54.576Z,3.15
2024-01-04T14:01:16.740Z,2.00
2024-01-04T14:03:39.277Z,2.17
2024-01-04T14:06:02.391Z,1.80
2024-01-04T14:08:26.216Z,1.50
2024-01-04T14:10:49.660Z,0.70
2024-01-04T14:13:11.761Z,1.30
2024-01-04T14:15:33.792Z,1.10
2024-01-04T14:17:56.045Z,0.80
2024-01-04T14:20:20.020Z,3.15
2024-01-04T14:22:48.691Z,3.40
2024-01-04T14:25:10.822Z,2.47
2024-01-04T14:27:32.879Z,1.98
2024-01-04T14:29:54.941Z,3.30
2024-01-04T14:32:16.880Z,1.10
2024-01-04T14:34:38.886Z,2.60
2024-01-04T14:37:00.882Z,1.77
2024-01-04T14:39:23.107Z,1.60
2024-01-04T14:41:45.196Z,2.58
2024-01-04T14:44:07.406Z,1.93
2024-01-04T14:46:29.618Z,4.00
2024-01-04T14:48:51.898Z,1.30
2024-01-04T14:51:20.414Z,2.78
2024-01-04T14:53:42.596Z,2.75
2024-01-04T14:56:06.831Z,3.92
2024-01-04T14:58:28.721Z,2.90
2024-01-04T15:00:51.213Z,1.50
2024-01-04T15:03:13.232Z,1.70
2024-01-04T15:05:35.216Z,2.20
2024-01-04T15:07:57.599Z,3.85
2024-01-04T15:10:19.518Z,2.20
2024-01-04T15:12:41.396Z,1.67
2024-01-04T15:15:04.074Z,2.58
2024-01-04T15:17:26.506Z,3.60
2024-01-04T15:19:49.002Z,2.88
2024-01-04T15:22:11.017Z,3.90
2024-01-04T15:24:32.900Z,2.03
2024-01-04T15:26:54.790Z,3.55
2024-01-04T15:29:16.696Z,5.00
2024-01-04T15:31:38.673Z,4.38
2024-01-04T15:34:01.361Z,3.28
2024-01-04T15:36:23.641Z,4.78
2024-01-04T15:38:46.045Z,3.27
2024-01-04T15:41:08.095Z,2.85
2024-01-04T15:43:30.187Z,2.30
2024-01-04T15:45:52.052Z,4.70
2024-01-04T15:48:16.923Z,3.63
2024-01-04T15:50:40.044Z,2.00
2024-01-04T15:53:02.066Z,3.40
2024-01-04T15:55:23.933Z,2.35
2024-01-04T15:57:46.150Z,2.58
2024-01-04T16:00:09.083Z,2.07
2024-01-04T16:02:31.032Z,5.35
2024-01-04T16:04:52.898Z,2.60
2024-01-04T16:07:14.876Z,3.90
2024-01-04T16:09:36.881Z,5.25
2024-01-04T16:11:58.972Z,3.90
2024-01-04T16:14:20.965Z,4.90
2024-01-04T16:16:42.852Z,4.65
2024-01-04T16:19:04.862Z,4.68
2024-01-04T16:21:26.982Z,5.03
2024-01-04T16:23:49.137Z,4.10
2024-01-04T16:26:13.028Z,4.10
2024-01-04T16:28:38.626Z,5.72
2024-01-04T16:31:00.729Z,4.32
2024-01-04T16:33:22.814Z,4.70
2024-01-04T16:35:45.999Z,7.00
2024-01-04T16:38:08.699Z,6.13
2024-01-04T16:40:31.175Z,7.03
2024-01-04T16:42:53.185Z,3.30
2024-01-04T16:45:15.260Z,3.80
2024-01-04T16:47:37.581Z,6.50
2024-01-04T16:50:00.720Z,4.10
2024-01-04T16:52:22.765Z,4.00
2024-01-04T16:54:44.811Z,3.75
2024-01-04T16:57:07.374Z,4.18
2024-01-04T16:59:29.465Z,2.33
2024-01-04T17:01:51.408Z,7.15
2024-01-04T17:04:13.352Z,5.13
2024-01-04T17:06:35.369Z,2.67
2024-01-04T17:08:57.467Z,3.15
2024-01-04T17:11:19.579Z,4.27
2024-01-04T17:13:41.530Z,5.20
2024-01-04T17:16:04.053Z,4.30
2024-01-04T17:18:26.603Z,5.90
2024-01-04T17:20:49.819Z,11.65
2024-01-04T17:23:11.824Z,12.60
2024-01-04T17:25:33.752Z,10.37
2024-01-04T17:27:56.273Z,4.75
2024-01-04T17:30:21.052Z,4.30
2024-01-04T17:32:43.229Z,4.97
2024-01-04T17:35:05.645Z,2.50
2024-01-04T17:37:29.290Z,3.08
2024-01-04T17:39:51.344Z,3.50
2024-01-04T17:42:13.736Z,3.63
2024-01-04T17:44:35.655Z,5.53
2024-01-04T17:46:57.681Z,5.70
2024-01-04T17:49:19.621Z,6.13
2024-01-04T17:51:41.775Z,3.77
2024-01-04T17:54:04.228Z,5.82
2024-01-04T17:56:26.287Z,6.35
2024-01-04T17:58:48.801Z,6.13
2024-01-04T18:01:13.774Z,6.55
2024-01-04T18:03:37.012Z,6.72
2024-01-04T18:05:59.002Z,5.60
2024-01-04T18:08:21.534Z,4.57
2024-01-04T18:10:43.609Z,7.57
2024-01-04T18:13:05.560Z,6.07
2024-01-04T18:15:27.525Z,6.80
2024-01-04T18:17:49.693Z,5.68
2024-01-04T18:20:12.003Z,6.45
2024-01-04T18:22:36.838Z,4.53
2024-01-04T18:24:58.796Z,7.32
2024-01-04T18:27:20.813Z,5.57
2024-01-04T18:29:43.729Z,7.45
2024-01-04T18:32:06.235Z,9.50
2024-01-04T18:34:30.578Z,7.57
2024-01-04T18:36:52.622Z,8.00
2024-01-04T18:39:17.179Z,7.85
2024-01-04T18:41:40.195Z,5.43
2024-01-04T18:44:03.062Z,7.25
2024-01-04T18:46:24.959Z,8.35
2024-01-04T18:48:46.936Z,10.07
2024-01-04T18:51:09.584Z,6.38
2024-01-04T18:53:33.791Z,7.03
2024-01-04T18:55:55.662Z,7.28
2024-01-04T18:58:17.521Z,6.10
2024-01-04T19:00:39.866Z,5.47
2024-01-04T19:03:01.905Z,4.93
2024-01-04T19:05:23.886Z,8.27
2024-01-04T19:07:46.183Z,7.35
2024-01-04T19:10:08.858Z,9.25
2024-01-04T19:12:30.845Z,7.60
2024-01-04T19:14:52.798Z,5.57
2024-01-04T19:17:14.700Z,4.60
2024-01-04T19:19:36.654Z,4.10
2024-01-04T19:21:58.695Z,8.63
2024-01-04T19:24:20.721Z,4.90
2024-01-04T19:26:42.761Z,8.40
2024-01-04T19:29:04.720Z,7.07
2024-01-04T19:31:26.829Z,4.03
2024-01-04T19:33:48.993Z,4.70
2024-01-04T19:36:11.074Z,4.72
2024-01-04T19:38:33.070Z,5.13
2024-01-04T19:40:54.980Z,7.70
2024-01-04T19:43:16.841Z,5.38
2024-01-04T19:45:39.230Z,4.72
2024-01-04T19:48:01.280Z,4.40
2024-01-04T19:50:25.339Z,5.30
2024-01-04T19:52:49.368Z,6.30
2024-01-04T19:55:14.452Z,6.57
2024-01-04T19:57:36.357Z,3.80
2024-01-04T19:59:58.310Z,5.53
2024-01-04T20:02:20.410Z,8.80
2024-01-04T20:04:42.960Z,8.00
2024-01-04T20:07:13.167Z,9.45
2024-01-04T20:09:35.607Z,6.22
2024-01-04T20:11:57.664Z,8.25
2024-01-04T20:14:19.606Z,7.35
2024-01-04T20:16:43.030Z,6.20
2024-01-04T20:19:05.310Z,6.80
2024-01-04T20:21:27.546Z,8.80
2024-01-04T20:23:49.505Z,5.93
2024-01-04T20:26:12.466Z,6.80
2024-01-04T20:28:34.488Z,8.05
2024-01-04T20:30:57.360Z,4.38
2024-01-04T20:33:19.419Z,5.63
2024-01-04T20:35:41.441Z,7.10
2024-01-04T20:38:03.617Z,5.82
2024-01-04T20:40:25.537Z,5.22
2024-01-04T20:42:47.476Z,5.50
2024-01-04T20:45:09.534Z,4.97
2024-01-04T20:47:33.522Z,8.07
2024-01-04T20:49:55.501Z,5.68
2024-01-04T20:52:18.254Z,7.40
2024-01-04T20:54:40.717Z,9.57
2024-01-04T20:57:02.629Z,8.48
2024-01-04T20:59:24.560Z,7.72
2024-01-04T21:01:47.726Z,6.95
2024-01-04T21:04:11.093Z,4.88
2024-01-04T21:06:33.762Z,4.57
2024-01-04T21:08:55.822Z,4.05
2024-01-04T21:11:17.772Z,8.38
2024-01-04T21:13:39.676Z,4.32
2024-01-04T21:16:01.875Z,5.90
2024-01-04T21:18:23.938Z,7.03
2024-01-04T21:20:47.622Z,9.00
2024-01-04T21:23:12.766Z,3.23
2024-01-04T21:25:34.736Z,3.20
2024-01-04T21:27:56.644Z,4.53
2024-01-04T21:30:18.696Z,5.72
2024-01-04T21:32:40.655Z,4.28
2024-01-04T21:35:02.805Z,3.70
2024-01-04T21:37:24.673Z,6.20
2024-01-04T21:39:49.320Z,6.65
2024-01-04T21:42:13.573Z,6.07
2024-01-04T21:44:39.072Z,6.63
2024-01-04T21:47:00.930Z,5.90
2024-01-04T21:49:24.024Z,4.53
2024-01-04T21:51:46.837Z,6.15
2024-01-04T21:54:09.071Z,5.25
2024-01-04T21:56:31.372Z,5.78
2024-01-04T21:58:54.240Z,6.22
2024-01-04T22:01:27.300Z,6.85
2024-01-04T22:03:49.293Z,7.93
2024-01-04T22:06:11.373Z,3.63
2024-01-04T22:08:33.272Z,5.20
2024-01-04T22:10:55.261Z,5.13
2024-01-04T22:13:17.745Z,6.10
2024-01-04T22:15:41.178Z,3.83
2024-01-04T22:18:05.909Z,5.20
2024-01-04T22:20:27.956Z,5.03
2024-01-04T22:22:51.209Z,7.70
2024-01-04T22:25:13.107Z,3.80
2024-01-04T22:27:34.981Z,2.58
2024-01-04T22:29:57.043Z,7.15
2024-01-04T22:32:18.994Z,3.30
2024-01-04T22:34:41.006Z,4.78
2024-01-04T22:37:03.651Z,4.18
2024-01-04T22:39:25.612Z,5.85
2024-01-04T22:41:50.239Z,6.90
2024-01-04T22:44:13.105Z,6.85
2024-01-04T22:46:35.067Z,5.03
2024-01-04T22:48:57.074Z,2.60
2024-01-04T22:51:19.487Z,5.25
2024-01-04T22:53:41.415Z,5.05
2024-01-04T22:56:03.467Z,5.05
2024-01-04T22:58:25.351Z,5.72
2024-01-04T23:00:47.364Z,4.03
2024-01-04T23:03:09.401Z,5.50
2024-01-04T23:05:31.360Z,4.40
2024-01-04T23:07:53.664Z,7.97
2024-01-04T23:10:15.552Z,6.00
2024-01-04T23:12:37.725Z,2.80
2024-01-04T23:15:00.528Z,5.03
2024-01-04T23:17:22.557Z,5.43
2024-01-04T23:19:45.495Z,3.97
2024-01-04T23:22:08.655Z,2.78
2024-01-04T23:24:30.601Z,5.18
2024-01-04T23:26:52.592Z,3.53
2024-01-04T23:29:14.486Z,3.08
2024-01-04T23:31:36.799Z,3.40
2024-01-04T23:33:58.847Z,3.92
2024-01-04T23:36:20.962Z,4.70
2024-01-04T23:38:43.176Z,4.97
2024-01-04T23:41:05.237Z,2.60
2024-01-04T23:43:27.400Z,8.02
2024-01-04T23:45:49.328Z,2.80
2024-01-04T23:48:11.300Z,3.83
2024-01-04T23:50:33.340Z,3.60
2024-01-04T23:52:55.335Z,4.57
2024-01-04T23:55:17.214Z,2.80
2024-01-04T23:57:39.142Z,4.20
